Terminal Aerodrome Forecast
Issued by NWS Jackson, KY

Home | Current Version | Previous Version | Text Only | Print | Product List | Glossary On
Versions: 1 2 3 4 5 6 7 8 9 10 11 12 13 14 15 16 17 18
131
FTUS43 KJKL 222337
TAFLOZ
TAF
KLOZ 222337Z 2300/2324 02005KT P6SM SKC
     FM231500 15005KT P6SM FEW200
     FM232100 18008KT P6SM BKN100=

USA.gov is the U.S. government's official web portal to all federal, state and local government web resources and services.